Time;durP1;ratioP1;P1;durP2;ratioP2;P2;SDS_P1;SDS_P2;PMS_P1;PMS_P2;Temp;Humidity;BMP_temperature;BMP_pressure;BME280_temperature;BME280_humidity;BME280_pressure;Samples;Min_cycle;Max_cycle;Signal;HPM_P1;HPM_P2
2023/04/22 00:01:07;;;;;;;16.27;2.05;;;;;;;9.65;100.00;99636.19;10329995;28;20042;-70
2023/04/22 00:06:08;;;;;;;14.50;1.50;;;;;;;9.20;100.00;99573.44;10330078;28;20541;-70
2023/04/22 00:11:09;;;;;;;8.70;1.13;;;;;;;9.44;100.00;99628.91;10330294;28;20034;-70
2023/04/22 00:16:10;;;;;;;2.40;1.33;;;;;;;9.35;100.00;99644.03;10337415;28;20053;-70
2023/04/22 00:21:11;;;;;;;4.00;1.05;;;;;;;8.98;100.00;99620.13;10337529;28;20053;-70
2023/04/22 00:26:12;;;;;;;11.82;3.10;;;;;;;9.07;100.00;99641.09;10337252;28;20133;-71
2023/04/22 00:31:13;;;;;;;52.47;4.32;;;;;;;9.18;100.00;99639.84;10337188;28;20045;-70
2023/04/22 00:36:13;;;;;;;100.43;4.88;;;;;;;8.97;100.00;99621.13;10337428;28;20050;-71
2023/04/22 00:41:14;;;;;;;571.22;13.75;;;;;;;8.96;100.00;99612.34;10337302;28;20406;-70
2023/04/22 00:46:15;;;;;;;95.82;5.80;;;;;;;9.08;100.00;99642.75;10337641;28;20039;-70
2023/04/22 00:51:16;;;;;;;40.67;3.65;;;;;;;8.99;100.00;99632.38;10336412;28;20041;-71
2023/04/22 00:56:19;;;;;;;118.97;4.75;;;;;;;8.94;100.00;99651.44;10337166;28;20054;-70
2023/04/22 01:01:20;;;;;;;56.13;4.20;;;;;;;7.93;100.00;99507.47;10336839;28;20054;-70
2023/04/22 01:06:23;;;;;;;38.25;2.58;;;;;;;8.35;100.00;99582.22;10335796;28;20041;-71
2023/04/22 01:11:24;;;;;;;36.92;3.47;;;;;;;8.78;100.00;99657.66;10336803;28;20513;-70
2023/04/22 01:16:27;;;;;;;15.50;2.45;;;;;;;8.40;100.00;99620.41;10335829;28;20073;-70
2023/04/22 01:21:28;;;;;;;15.13;2.65;;;;;;;8.63;100.00;99676.06;10317900;28;20050;-70
2023/04/22 01:26:29;;;;;;;6.95;2.47;;;;;;;8.56;100.00;99648.66;10335734;28;20042;-70
2023/04/22 01:31:30;;;;;;;29.27;2.97;;;;;;;8.60;100.00;99652.59;10334844;28;20049;-70
2023/04/22 01:36:32;;;;;;;36.67;3.30;;;;;;;8.55;100.00;99646.97;10334762;28;20128;-71
2023/04/22 01:41:34;;;;;;;9.45;2.88;;;;;;;8.56;100.00;99663.72;10334597;28;20073;-70
2023/04/22 01:46:35;;;;;;;9.80;2.47;;;;;;;8.48;100.00;99642.56;10334751;28;20042;-70
2023/04/22 01:51:36;;;;;;;2.83;2.10;;;;;;;8.73;100.00;99683.81;10334550;28;20428;-70
2023/04/22 01:56:39;;;;;;;3.13;2.28;;;;;;;8.55;100.00;99631.09;10333793;28;20055;-70
2023/04/22 02:01:39;;;;;;;4.88;2.08;;;;;;;8.31;100.00;99586.19;10333737;28;20506;-71
2023/04/22 02:06:40;;;;;;;2.95;2.22;;;;;;;8.43;100.00;99616.59;10333638;28;20050;-71
2023/04/22 02:11:41;;;;;;;3.65;2.70;;;;;;;8.86;100.00;99685.94;10334106;28;20044;-70
2023/04/22 02:16:42;;;;;;;5.90;2.50;;;;;;;8.58;100.00;99638.69;10333040;28;20077;-70
2023/04/22 02:21:43;;;;;;;4.35;2.47;;;;;;;8.64;100.00;99672.41;10333465;28;20038;-70
2023/04/22 02:26:44;;;;;;;3.45;2.83;;;;;;;8.68;100.00;99675.56;10333429;28;20045;-71
2023/04/22 02:31:45;;;;;;;8.02;2.55;;;;;;;8.80;100.00;99670.72;10333381;28;20042;-70
2023/04/22 02:36:46;;;;;;;5.65;2.70;;;;;;;8.33;99.55;99598.25;10331678;28;20556;-70
2023/04/22 02:41:47;;;;;;;7.93;3.65;;;;;;;8.77;99.95;99652.53;10332668;28;20438;-70
2023/04/22 02:46:48;;;;;;;15.35;4.43;;;;;;;9.10;100.00;99663.78;10332224;28;20065;-70
2023/04/22 02:51:48;;;;;;;4.97;3.33;;;;;;;9.63;99.44;99671.84;10332371;28;20049;-70
2023/04/22 02:56:49;;;;;;;5.88;3.17;;;;;;;9.92;98.49;99615.38;10332698;28;20530;-70
2023/04/22 03:01:50;;;;;;;4.82;3.22;;;;;;;10.37;97.66;99595.81;10332176;28;20133;-70
2023/04/22 03:06:51;;;;;;;4.43;3.10;;;;;;;11.43;97.02;99697.19;10331896;28;20430;-70
2023/04/22 03:11:52;;;;;;;6.10;2.78;;;;;;;12.43;95.51;99692.69;10332305;28;20418;-70
2023/04/22 03:16:53;;;;;;;5.72;2.70;;;;;;;13.47;93.46;99690.66;10331212;28;20038;-70
2023/04/22 03:21:55;;;;;;;5.13;2.60;;;;;;;13.66;92.70;99696.22;10331025;28;20073;-70
2023/04/22 03:26:56;;;;;;;3.05;2.03;;;;;;;14.58;90.93;99730.09;10331040;28;20077;-71
2023/04/22 03:31:56;;;;;;;2.88;1.88;;;;;;;15.19;88.06;99679.88;10331196;28;20038;-71
2023/04/22 03:36:57;;;;;;;3.70;1.70;;;;;;;16.86;84.60;99739.94;10331799;28;20085;-71
2023/04/22 03:41:58;;;;;;;2.60;1.83;;;;;;;17.58;81.34;99733.88;10331491;28;20069;-71
2023/04/22 03:46:59;;;;;;;5.43;1.65;;;;;;;18.11;79.09;99745.72;10331975;28;20073;-71
2023/04/22 03:52:00;;;;;;;2.80;1.60;;;;;;;18.53;77.06;99741.03;10314056;28;20050;-71
2023/04/22 03:57:01;;;;;;;6.28;1.40;;;;;;;19.17;74.55;99754.53;10322082;28;20062;-72
2023/04/22 04:02:02;;;;;;;2.05;1.38;;;;;;;19.45;72.50;99758.31;10301840;28;20106;-72
2023/04/22 04:07:03;;;;;;;2.03;1.27;;;;;;;19.71;71.20;99757.72;10298995;28;20451;-72
2023/04/22 04:12:04;;;;;;;2.45;1.30;;;;;;;19.98;70.19;99757.13;10298244;28;20073;-72
2023/04/22 04:17:08;;;;;;;2.08;1.30;;;;;;;18.87;69.89;99679.38;10298246;28;20039;-72
2023/04/22 04:22:09;;;;;;;2.85;1.20;;;;;;;18.79;70.06;99669.00;10297282;28;20045;-72
2023/04/22 04:27:10;;;;;;;2.20;1.20;;;;;;;19.10;69.83;99745.78;10297709;28;20565;-71
2023/04/22 04:32:11;;;;;;;3.92;1.30;;;;;;;19.03;69.34;99742.41;10297723;28;20046;-71
2023/04/22 04:37:12;;;;;;;2.13;1.00;;;;;;;18.24;67.09;99672.88;10297078;28;20067;-72
2023/04/22 04:42:13;;;;;;;4.63;1.20;;;;;;;18.15;66.98;99739.63;10296646;28;20085;-72
2023/04/22 04:47:13;;;;;;;4.25;1.30;;;;;;;17.63;67.81;99744.75;10296313;28;20068;-72
2023/04/22 04:52:14;;;;;;;11.75;1.17;;;;;;;16.53;68.35;99731.41;10296309;28;20121;-72
2023/04/22 04:57:15;;;;;;;4.53;1.30;;;;;;;15.51;69.53;99654.75;10294818;28;20062;-72
2023/04/22 05:02:16;;;;;;;2.50;1.20;;;;;;;15.90;69.54;99753.81;10296248;28;20074;-71
2023/04/22 05:07:17;;;;;;;2.05;1.17;;;;;;;15.74;70.54;99769.38;10294403;28;20073;-71
2023/04/22 05:12:17;;;;;;;6.55;1.30;;;;;;;15.50;70.83;99754.84;10296225;28;20047;-72
2023/04/22 05:17:19;;;;;;;1.33;0.90;;;;;;;15.27;71.55;99736.66;10296345;28;20046;-72
2023/04/22 05:22:20;;;;;;;4.55;1.10;;;;;;;15.44;71.88;99745.00;10296508;28;20569;-72
2023/04/22 05:27:21;;;;;;;4.38;1.00;;;;;;;15.80;70.69;99735.56;10295511;28;20446;-71
2023/04/22 05:32:22;;;;;;;2.63;1.00;;;;;;;15.95;69.50;99746.75;10316017;28;20057;-72
2023/04/22 05:37:23;;;;;;;2.72;0.90;;;;;;;16.32;68.89;99744.19;10335652;28;20065;-73
2023/04/22 05:42:23;;;;;;;1.95;1.00;;;;;;;16.48;67.92;99760.75;10335292;28;20053;-73
2023/04/22 05:47:24;;;;;;;1.75;0.85;;;;;;;16.45;67.43;99743.22;10334211;28;20133;-71
2023/04/22 05:52:25;;;;;;;1.92;1.00;;;;;;;16.57;67.21;99746.84;10332824;28;20498;-73
2023/04/22 05:57:26;;;;;;;2.42;1.10;;;;;;;16.64;67.37;99754.81;10321931;28;20438;-72
2023/04/22 06:02:27;;;;;;;2.35;1.30;;;;;;;16.70;66.95;99764.66;10331292;28;20042;-72
2023/04/22 06:07:28;;;;;;;2.90;1.30;;;;;;;16.87;66.60;99754.19;10320432;28;20165;-73
2023/04/22 06:12:29;;;;;;;5.05;1.30;;;;;;;17.45;65.50;99767.09;10333130;28;20085;-74
2023/04/22 06:17:29;;;;;;;3.30;1.13;;;;;;;17.58;63.77;99760.72;10333662;28;20108;-72
2023/04/22 06:22:30;;;;;;;3.65;1.30;;;;;;;17.63;64.60;99774.31;10333194;28;20521;-73
2023/04/22 06:27:31;;;;;;;3.33;1.50;;;;;;;17.15;65.10;99686.56;10332972;28;20045;-72
2023/04/22 06:32:32;;;;;;;1.92;1.20;;;;;;;17.53;64.19;99755.25;10332608;28;20078;-73
2023/04/22 06:37:32;;;;;;;2.50;1.23;;;;;;;17.56;64.31;99792.38;10332764;28;20042;-73
2023/04/22 06:42:33;;;;;;;10.50;1.88;;;;;;;17.29;64.88;99779.28;10332699;28;20476;-72
2023/04/22 06:47:34;;;;;;;3.53;1.33;;;;;;;17.12;65.16;99764.84;10332415;28;20450;-73
2023/04/22 06:52:35;;;;;;;2.58;1.52;;;;;;;17.29;65.01;99787.34;10330811;28;20586;-72
2023/04/22 06:57:36;;;;;;;2.08;1.30;;;;;;;17.06;63.23;99745.09;10332000;28;20053;-72
2023/04/22 07:02:37;;;;;;;2.75;1.25;;;;;;;16.94;63.22;99716.56;10331559;28;20049;-73
2023/04/22 07:07:38;;;;;;;5.05;1.30;;;;;;;17.78;62.70;99801.59;10332055;28;20589;-72
2023/04/22 07:12:39;;;;;;;2.30;1.10;;;;;;;17.79;62.94;99818.53;10331354;28;20092;-72
2023/04/22 07:17:39;;;;;;;3.15;1.25;;;;;;;17.42;63.34;99804.34;10331710;28;20097;-72
2023/04/22 07:22:40;;;;;;;1.58;1.00;;;;;;;17.43;63.41;99817.53;10330727;28;20046;-72
2023/04/22 07:27:41;;;;;;;4.68;1.45;;;;;;;17.46;61.87;99751.81;10331264;28;20054;-74
2023/04/22 07:32:42;;;;;;;7.72;1.40;;;;;;;18.67;61.26;99817.78;10332183;28;20054;-73
2023/04/22 07:37:42;;;;;;;2.47;1.15;;;;;;;19.16;59.97;99802.19;10313880;28;20081;-74
2023/04/22 07:42:43;;;;;;;1.45;0.90;;;;;;;19.34;58.70;99803.88;10331979;28;20425;-72
2023/04/22 07:47:44;;;;;;;3.22;1.30;;;;;;;19.12;57.55;99746.38;10314758;28;20045;-73
2023/04/22 07:52:45;;;;;;;1.98;1.10;;;;;;;18.59;57.52;99680.94;10313307;28;20046;-73
2023/04/22 07:57:46;;;;;;;6.47;1.67;;;;;;;19.49;57.43;99800.69;10330505;28;20043;-73
2023/04/22 08:02:46;;;;;;;2.85;1.10;;;;;;;19.41;58.18;99795.66;10313167;28;20053;-72
2023/04/22 08:07:47;;;;;;;1.52;0.90;;;;;;;20.24;57.10;99798.81;10330558;28;20124;-72
2023/04/22 08:12:48;;;;;;;2.50;1.08;;;;;;;19.93;56.25;99802.88;10330339;28;20050;-72
2023/04/22 08:17:49;;;;;;;3.55;1.20;;;;;;;19.18;57.07;99731.94;10330080;28;20048;-71
2023/04/22 08:22:55;;;;;;;3.30;1.00;;;;;;;19.34;56.22;99768.88;10330161;28;20043;-72
2023/04/22 08:27:56;;;;;;;3.97;0.90;;;;;;;19.01;56.71;99774.94;10329493;28;20043;-72
2023/04/22 08:32:57;;;;;;;8.38;1.30;;;;;;;19.26;56.09;99758.47;10330402;28;20049;-73
2023/04/22 08:37:58;;;;;;;1.92;0.70;;;;;;;19.52;55.10;99772.44;10337793;28;20073;-72
2023/04/22 08:42:59;;;;;;;1.55;0.60;;;;;;;19.79;54.40;99783.47;10319363;28;20046;-72
2023/04/22 08:48:01;;;;;;;1.17;0.68;;;;;;;19.88;52.96;99771.25;10336111;28;20046;-72
2023/04/22 08:53:01;;;;;;;1.98;0.60;;;;;;;20.13;52.61;99772.72;10336449;28;20060;-72
2023/04/22 08:58:04;;;;;;;3.75;0.70;;;;;;;19.98;52.57;99784.91;10336758;28;20046;-72
2023/04/22 09:03:06;;;;;;;1.20;0.60;;;;;;;19.92;52.03;99779.66;10336581;28;20049;-72
2023/04/22 09:08:07;;;;;;;1.88;0.80;;;;;;;20.29;52.23;99785.41;10336586;28;20050;-72
2023/04/22 09:13:09;;;;;;;2.17;0.70;;;;;;;20.35;50.37;99687.31;10336255;28;20406;-72
2023/04/22 09:18:10;;;;;;;3.15;0.88;;;;;;;20.76;49.50;99752.69;10335853;28;20042;-71
2023/04/22 09:23:12;;;;;;;1.95;0.90;;;;;;;20.99;50.45;99759.72;10336535;28;20048;-72
2023/04/22 09:28:17;;;;;;;3.50;0.70;;;;;;;21.22;51.31;99771.34;10335759;28;20057;-72
2023/04/22 09:33:18;;;;;;;1.95;0.98;;;;;;;21.15;49.47;99753.44;10276964;28;20052;-72
2023/04/22 09:38:19;;;;;;;2.20;0.68;;;;;;;20.56;49.43;99677.66;10294243;28;20057;-70
2023/04/22 09:43:20;;;;;;;1.42;0.63;;;;;;;20.73;48.75;99666.78;10295272;28;20053;-71
2023/04/22 09:48:22;;;;;;;2.65;0.70;;;;;;;21.39;48.18;99728.91;10293797;28;20043;-71
2023/04/22 09:53:23;;;;;;;3.60;0.65;;;;;;;20.94;48.12;99740.78;10294224;28;20138;-71
2023/04/22 09:58:26;;;;;;;2.97;0.65;;;;;;;20.07;48.09;99661.28;10294908;28;20043;-70
2023/04/22 10:03:27;;;;;;;1.83;0.93;;;;;;;20.41;48.09;99731.38;10293745;28;20045;-72
2023/04/22 10:08:29;;;;;;;1.65;0.80;;;;;;;21.00;48.45;99764.06;10293654;28;20134;-71
2023/04/22 10:13:31;;;;;;;2.08;0.82;;;;;;;20.77;48.65;99711.13;10293103;28;20042;-72
2023/04/22 10:18:38;;;;;;;1.95;0.70;;;;;;;21.43;46.99;99736.22;10293044;28;20074;-71
2023/04/22 10:23:45;;;;;;;2.60;0.60;;;;;;;21.22;46.51;99734.34;10294932;28;20042;-73
2023/04/22 10:28:46;;;;;;;4.13;0.75;;;;;;;21.03;47.30;99735.72;10333148;28;20046;-71
2023/04/22 10:33:47;;;;;;;2.42;0.70;;;;;;;21.10;48.09;99745.28;10316422;28;20418;-73
2023/04/22 10:38:53;;;;;;;1.42;0.60;;;;;;;21.13;46.43;99782.59;10332824;28;20053;-72
2023/04/22 10:44:05;;;;;;;1.75;0.60;;;;;;;20.27;46.61;99725.50;10305041;28;20498;-72
2023/04/22 10:49:17;;;;;;;2.08;0.60;;;;;;;20.73;46.32;99801.75;10332128;28;20499;-72
2023/04/22 10:54:35;;;;;;;2.67;0.88;;;;;;;21.09;47.10;99808.47;10314389;28;20073;-72
2023/04/22 10:59:47;;;;;;;3.92;0.70;;;;;;;21.15;47.19;99795.84;10331726;28;20092;-72
2023/04/22 11:04:48;;;;;;;3.85;0.70;;;;;;;21.41;45.76;99789.69;10331509;28;20038;-72
2023/04/22 11:09:51;;;;;;;6.35;0.90;;;;;;;21.36;45.61;99751.03;10331516;28;20078;-71
2023/04/22 11:14:52;;;;;;;1.98;0.90;;;;;;;21.45;46.15;99770.28;10332790;28;20052;-71
2023/04/22 11:19:55;;;;;;;6.03;0.85;;;;;;;20.64;45.84;99696.13;10331228;28;20046;-71
2023/04/22 11:24:57;;;;;;;5.90;0.87;;;;;;;20.70;46.77;99764.44;10330193;28;20038;-72
2023/04/22 11:30:11;;;;;;;7.05;1.30;;;;;;;20.91;46.88;99788.00;10308817;28;20494;-70
2023/04/22 11:35:14;;;;;;;2.97;0.85;;;;;;;20.95;46.21;99762.09;10293087;28;20128;-71
2023/04/22 11:40:32;;;;;;;2.78;0.88;;;;;;;21.28;45.86;99784.66;10323199;28;20086;-71
2023/04/22 11:45:36;;;;;;;2.35;0.80;;;;;;;21.08;46.64;99758.22;10279251;28;20043;-72
2023/04/22 11:50:39;;;;;;;1.60;0.70;;;;;;;20.56;47.01;99710.03;10315422;28;20042;-72
2023/04/22 11:55:42;;;;;;;2.87;1.33;;;;;;;20.34;47.99;99774.72;10331746;28;20062;-71
2023/04/22 12:00:45;;;;;;;3.20;1.00;;;;;;;19.75;49.81;99815.50;10334191;28;20057;-71
2023/04/22 12:05:52;;;;;;;3.53;0.90;;;;;;;18.34;53.51;99787.94;10319041;28;20062;-71
2023/04/22 12:10:57;;;;;;;7.07;1.55;;;;;;;17.11;57.36;99803.44;10323793;28;20049;-71
2023/04/22 12:16:03;;;;;;;5.85;0.75;;;;;;;16.50;60.48;99839.09;10336982;28;20073;-72
2023/04/22 12:21:08;;;;;;;3.67;0.90;;;;;;;15.83;63.46;99847.59;10329107;28;20066;-71
2023/04/22 12:26:09;;;;;;;5.55;2.33;;;;;;;15.25;64.77;99828.88;10313575;28;20039;-72
2023/04/22 12:31:11;;;;;;;1.77;0.80;;;;;;;14.91;66.97;99852.22;10313988;28;20031;-72
2023/04/22 12:36:12;;;;;;;3.10;0.80;;;;;;;14.69;69.24;99885.53;10308634;28;20046;-70
2023/04/22 12:41:14;;;;;;;8.23;1.40;;;;;;;15.11;70.57;99865.56;10317516;28;20038;-71
2023/04/22 12:46:15;;;;;;;7.57;1.70;;;;;;;15.55;72.92;99829.16;10309492;28;20046;-70
2023/04/22 12:51:16;;;;;;;2.70;1.55;;;;;;;15.51;73.53;99850.19;10301689;28;20126;-70
2023/04/22 12:56:17;;;;;;;7.18;4.65;;;;;;;15.86;74.26;99860.56;10313040;28;20553;-69
2023/04/22 13:01:18;;;;;;;2.97;1.40;;;;;;;15.80;73.99;99855.25;10314872;28;20049;-72
2023/04/22 13:06:19;;;;;;;1.95;1.00;;;;;;;15.69;73.03;99792.47;10329547;28;20050;-69
2023/04/22 13:11:20;;;;;;;2.72;0.93;;;;;;;16.41;72.57;99898.34;10333303;28;20053;-72
2023/04/22 13:16:21;;;;;;;3.15;1.50;;;;;;;16.14;72.10;99820.00;10334693;28;20042;-72
2023/04/22 13:21:22;;;;;;;3.47;1.10;;;;;;;16.70;70.85;99887.22;10310020;28;20112;-70
2023/04/22 13:26:23;;;;;;;9.02;1.42;;;;;;;16.63;70.69;99888.09;10332370;28;20081;-71
2023/04/22 13:31:23;;;;;;;2.75;1.17;;;;;;;16.49;70.34;99872.31;10326653;28;20042;-71
2023/04/22 13:36:25;;;;;;;2.70;1.05;;;;;;;16.34;70.68;99875.31;10316557;28;20043;-71
2023/04/22 13:41:26;;;;;;;2.42;1.00;;;;;;;16.63;70.28;99888.09;10329458;28;20549;-72
2023/04/22 13:46:26;;;;;;;2.78;1.10;;;;;;;16.60;69.07;99882.31;10332189;28;20038;-73
2023/04/22 13:51:27;;;;;;;5.68;0.90;;;;;;;16.61;69.44;99894.72;10333851;28;20133;-73
2023/04/22 13:56:28;;;;;;;3.25;0.88;;;;;;;16.19;68.99;99822.03;10333059;28;20415;-70
2023/04/22 14:01:29;;;;;;;3.70;1.00;;;;;;;16.60;68.90;99903.78;10332642;28;20057;-73
2023/04/22 14:06:30;;;;;;;3.25;0.80;;;;;;;15.90;69.04;99844.88;10332086;28;20042;-71
2023/04/22 14:11:31;;;;;;;2.33;0.82;;;;;;;16.00;69.41;99908.69;10332435;28;20172;-71
2023/04/22 14:16:32;;;;;;;2.10;0.80;;;;;;;15.19;70.14;99821.69;10329920;28;20089;-71
2023/04/22 14:21:32;;;;;;;3.85;1.42;;;;;;;15.51;70.38;99884.16;10332983;28;20054;-71
2023/04/22 14:26:33;;;;;;;3.75;1.15;;;;;;;15.68;70.23;99930.06;10329086;28;20049;-69
2023/04/22 14:31:34;;;;;;;3.72;1.33;;;;;;;15.58;70.07;99910.91;10331398;28;20112;-70
2023/04/22 14:36:35;;;;;;;3.10;1.35;;;;;;;15.67;70.53;99947.97;10323668;28;20042;-70
2023/04/22 14:41:36;;;;;;;5.10;2.63;;;;;;;15.43;71.25;99917.31;10331193;28;20054;-71
2023/04/22 14:46:36;;;;;;;6.20;3.20;;;;;;;15.04;71.43;99857.53;10332150;28;20129;-69
2023/04/22 14:51:37;;;;;;;4.50;3.40;;;;;;;15.49;71.31;99929.06;10332077;28;20042;-71
2023/04/22 14:56:38;;;;;;;3.28;2.13;;;;;;;15.57;71.85;99960.97;10331470;28;20065;-70
2023/04/22 15:01:41;;;;;;;5.70;0.98;;;;;;;15.36;73.04;99955.84;10332219;28;20600;-71
2023/04/22 15:06:42;;;;;;;3.72;0.70;;;;;;;15.24;73.63;99977.91;10331517;28;20042;-71
2023/04/22 15:11:43;;;;;;;1.67;0.63;;;;;;;15.12;74.28;99963.50;10331799;28;20046;-71
2023/04/22 15:16:44;;;;;;;1.90;0.88;;;;;;;15.09;74.63;99961.25;10331701;28;20038;-71
2023/04/22 15:21:45;;;;;;;1.95;0.88;;;;;;;15.06;75.13;99965.16;10331809;28;20050;-74
2023/04/22 15:26:47;;;;;;;3.00;0.77;;;;;;;14.94;76.29;99969.47;10327252;28;20038;-73
2023/04/22 15:31:48;;;;;;;2.17;0.80;;;;;;;14.13;76.71;99866.16;10330971;28;20096;-74
2023/04/22 15:36:48;;;;;;;1.30;0.77;;;;;;;14.43;77.88;99935.25;10329652;28;20050;-72
2023/04/22 15:41:49;;;;;;;2.50;1.58;;;;;;;14.80;78.34;100016.75;10318153;28;20046;-72
2023/04/22 15:46:51;;;;;;;6.40;1.10;;;;;;;14.68;79.13;100001.53;10323526;28;20096;-74
2023/04/22 15:51:52;;;;;;;2.20;0.90;;;;;;;14.61;79.71;100022.91;10312551;28;20046;-74
2023/04/22 15:56:53;;;;;;;2.65;1.10;;;;;;;14.55;79.94;100029.88;10298167;28;20046;-74
2023/04/22 16:01:54;;;;;;;3.20;1.42;;;;;;;14.45;80.27;100029.44;10305851;28;20042;-73
2023/04/22 16:12:05;;;;;;;187.10;109.88;;;;;;;14.48;80.52;100050.41;10384043;23;20089;-74
2023/04/22 16:17:07;;;;;;;73.22;49.17;;;;;;;14.12;80.45;99990.06;10301350;28;20046;-73
2023/04/22 16:22:08;;;;;;;36.17;24.30;;;;;;;14.61;81.12;100071.84;10284995;28;20054;-72
2023/04/22 16:27:08;;;;;;;11.70;6.45;;;;;;;14.11;80.94;99991.06;10316578;28;20095;-73
2023/04/22 16:32:10;;;;;;;4.40;3.03;;;;;;;14.45;81.31;100088.22;10327412;28;20058;-73
2023/04/22 16:37:11;;;;;;;3.78;2.15;;;;;;;14.45;81.70;100104.25;10314557;28;20479;-72
2023/04/22 16:47:22;;;;;;;4.00;1.65;;;;;;;14.23;82.54;100124.88;10812565;23;20062;-73
2023/04/22 16:52:23;;;;;;;3.55;1.90;;;;;;;13.89;83.11;100134.53;10296921;28;20038;-73
2023/04/22 16:57:23;;;;;;;3.47;1.90;;;;;;;13.76;84.29;100142.47;10295644;28;20142;-74
2023/04/22 17:02:24;;;;;;;17.42;6.40;;;;;;;13.12;85.62;100065.94;10296602;28;20050;-74
2023/04/22 17:07:25;;;;;;;26.65;8.82;;;;;;;13.60;87.20;100158.75;10309856;28;20092;-73
2023/04/22 17:12:26;;;;;;;20.98;5.80;;;;;;;12.82;87.20;100059.91;10325173;28;20084;-75
2023/04/22 17:17:27;;;;;;;17.38;5.82;;;;;;;12.70;87.27;100083.56;10334473;28;20038;-76
2023/04/22 17:22:27;;;;;;;11.77;4.00;;;;;;;13.08;88.09;100174.03;10332658;28;20038;-76
2023/04/22 17:27:28;;;;;;;18.98;7.28;;;;;;;13.12;89.65;100209.13;10333317;28;20169;-74
2023/04/22 17:32:29;;;;;;;16.95;5.60;;;;;;;12.99;90.32;100199.16;10335346;28;20038;-74
2023/04/22 17:37:30;;;;;;;11.00;4.80;;;;;;;13.13;90.29;100216.97;10335638;28;20043;-73
2023/04/22 17:42:31;;;;;;;15.27;6.25;;;;;;;12.17;89.41;100082.09;10317913;28;20038;-72
2023/04/22 17:47:32;;;;;;;36.85;16.33;;;;;;;13.00;90.05;100222.13;10335016;28;20152;-73
2023/04/22 17:52:33;;;;;;;27.33;13.88;;;;;;;13.00;91.38;100206.13;10330641;28;20038;-71
2023/04/22 17:57:33;;;;;;;27.40;13.68;;;;;;;13.02;91.40;100231.59;10333054;28;20050;-72
2023/04/22 18:02:34;;;;;;;24.88;12.55;;;;;;;12.96;91.61;100234.19;10331036;28;20046;-72
2023/04/22 18:07:35;;;;;;;25.08;12.80;;;;;;;12.91;92.35;100233.91;10331279;28;20041;-72
2023/04/22 18:12:36;;;;;;;20.42;10.55;;;;;;;12.77;92.57;100223.09;10311190;28;20404;-72
2023/04/22 18:17:37;;;;;;;25.77;11.50;;;;;;;12.79;93.76;100234.38;10324609;28;20046;-73
2023/04/22 18:22:37;;;;;;;18.80;8.75;;;;;;;12.06;94.22;100171.25;10330967;28;20042;-72
2023/04/22 18:27:38;;;;;;;17.80;9.23;;;;;;;12.27;94.94;100210.50;10328321;28;20050;-72
2023/04/22 18:32:41;;;;;;;16.25;7.55;;;;;;;12.33;94.96;100215.91;10330973;28;20050;-72
2023/04/22 18:37:45;;;;;;;20.25;7.45;;;;;;;12.44;95.78;100238.59;10331325;28;20053;-72
2023/04/22 18:42:46;;;;;;;13.20;7.18;;;;;;;12.55;94.45;100248.81;10332401;28;20053;-72
2023/04/22 18:47:48;;;;;;;16.05;7.55;;;;;;;12.61;94.54;100260.56;10329049;28;20046;-72
2023/04/22 18:52:49;;;;;;;11.52;7.50;;;;;;;12.23;95.00;100194.03;10328988;28;20077;-72
2023/04/22 18:57:49;;;;;;;14.50;6.90;;;;;;;12.69;94.18;100257.00;10330680;28;20093;-72
2023/04/22 19:02:50;;;;;;;11.35;7.28;;;;;;;12.40;94.14;100225.84;10330949;28;20044;-72
2023/04/22 19:07:51;;;;;;;13.20;7.38;;;;;;;12.57;94.97;100259.28;10330509;28;20042;-72
2023/04/22 19:12:52;;;;;;;11.45;7.60;;;;;;;12.51;95.15;100244.03;10330423;28;20149;-72
2023/04/22 19:17:53;;;;;;;14.80;7.57;;;;;;;12.50;95.00;100240.56;10331148;28;20038;-72
2023/04/22 19:22:53;;;;;;;12.32;6.78;;;;;;;12.66;95.47;100260.84;10331236;28;20502;-72
2023/04/22 19:27:54;;;;;;;21.48;9.43;;;;;;;12.66;95.15;100250.19;10313967;28;20165;-72
2023/04/22 19:32:55;;;;;;;18.90;9.73;;;;;;;12.29;95.67;100203.97;10332180;28;20049;-72
2023/04/22 19:37:56;;;;;;;18.63;11.07;;;;;;;12.51;96.08;100242.19;10332108;28;20034;-73
2023/04/22 19:42:57;;;;;;;16.30;9.73;;;;;;;12.59;97.33;100267.91;10330831;28;20100;-73
2023/04/22 19:47:59;;;;;;;11.90;9.20;;;;;;;12.78;97.67;100310.03;10330593;28;20533;-73
2023/04/22 19:53:04;;;;;;;27.65;13.70;;;;;;;12.44;98.19;100243.91;10331770;28;20047;-72
2023/04/22 19:58:05;;;;;;;12.45;7.75;;;;;;;12.79;98.36;100300.19;10331003;28;20034;-72
2023/04/22 20:03:06;;;;;;;7.40;5.30;;;;;;;12.46;98.28;100230.44;10330563;28;20046;-72
2023/04/22 20:08:08;;;;;;;11.75;4.90;;;;;;;12.61;98.19;100246.44;10330853;28;20053;-72
2023/04/22 20:13:09;;;;;;;6.85;5.10;;;;;;;12.72;98.41;100280.63;10325239;28;20038;-73
2023/04/22 20:18:11;;;;;;;8.60;6.07;;;;;;;12.85;98.27;100303.97;10327947;28;20502;-72
2023/04/22 20:23:13;;;;;;;5.28;4.18;;;;;;;12.74;98.70;100281.25;10290626;28;20102;-73
2023/04/22 20:28:14;;;;;;;7.43;4.88;;;;;;;12.76;98.48;100272.06;10313861;28;20502;-72
2023/04/22 20:33:16;;;;;;;5.47;3.85;;;;;;;12.46;98.66;100222.44;10297047;28;20034;-72
2023/04/22 20:38:18;;;;;;;4.18;3.15;;;;;;;13.01;98.23;100306.44;10297437;28;20073;-73
2023/04/22 20:43:18;;;;;;;5.35;2.63;;;;;;;13.00;98.66;100312.78;10313063;28;20085;-73
2023/04/22 20:48:19;;;;;;;3.80;3.10;;;;;;;13.04;98.52;100327.41;10337599;28;20101;-72
2023/04/22 20:53:22;;;;;;;11.88;8.20;;;;;;;12.95;98.84;100312.50;10319654;28;20069;-72
2023/04/22 20:58:23;;;;;;;5.07;3.90;;;;;;;12.96;99.38;100325.66;10319714;28;20042;-72
2023/04/22 21:03:26;;;;;;;5.10;3.20;;;;;;;12.92;100.00;100311.06;10336480;28;20093;-73
2023/04/22 21:08:27;;;;;;;23.75;12.82;;;;;;;13.05;99.26;100334.41;10336609;28;20049;-72
2023/04/22 21:13:28;;;;;;;8.55;4.05;;;;;;;12.95;97.95;100331.16;10335860;28;20038;-72
2023/04/22 21:18:31;;;;;;;3.53;2.33;;;;;;;13.03;97.98;100339.09;10336151;28;20034;-72
2023/04/22 21:23:33;;;;;;;4.60;2.03;;;;;;;12.47;95.48;100256.06;10336375;28;20498;-72
2023/04/22 21:28:34;;;;;;;2.88;1.45;;;;;;;12.85;92.23;100306.63;10335795;28;20379;-72
2023/04/22 21:33:35;;;;;;;3.90;1.30;;;;;;;13.05;90.11;100330.91;10335164;28;20049;-72
2023/04/22 21:38:36;;;;;;;2.90;1.08;;;;;;;13.13;88.87;100347.66;10334917;28;20042;-72
2023/04/22 21:43:37;;;;;;;2.40;1.30;;;;;;;13.08;88.62;100338.53;10334445;28;20050;-72
2023/04/22 21:48:38;;;;;;;6.57;1.40;;;;;;;13.01;87.88;100346.44;10317625;28;20418;-72
2023/04/22 21:53:38;;;;;;;2.47;1.38;;;;;;;12.41;88.53;100254.94;10334330;28;20097;-72
2023/04/22 21:58:39;;;;;;;3.13;1.50;;;;;;;12.41;88.38;100259.44;10334751;28;20487;-72
2023/04/22 22:03:40;;;;;;;3.20;1.38;;;;;;;12.77;88.58;100321.72;10333867;28;20038;-72
2023/04/22 22:08:41;;;;;;;2.97;1.52;;;;;;;12.85;88.90;100331.44;10334819;28;20045;-72
2023/04/22 22:13:41;;;;;;;3.25;1.73;;;;;;;12.68;88.82;100297.97;10334094;28;20133;-72
2023/04/22 22:18:44;;;;;;;4.50;1.90;;;;;;;12.66;89.16;100305.34;10333395;28;20549;-72
2023/04/22 22:23:45;;;;;;;3.75;2.05;;;;;;;12.84;90.00;100340.47;10334422;28;20042;-73
2023/04/22 22:28:46;;;;;;;5.90;2.28;;;;;;;12.63;90.23;100287.06;10333970;28;20038;-72
2023/04/22 22:33:46;;;;;;;4.47;2.42;;;;;;;12.07;89.90;100191.53;10332828;28;20069;-72
2023/04/22 22:38:47;;;;;;;5.82;2.30;;;;;;;12.89;90.27;100337.22;10333121;28;20437;-72
2023/04/22 22:43:48;;;;;;;4.65;2.40;;;;;;;12.90;90.55;100334.41;10332862;28;20508;-72
2023/04/22 22:48:49;;;;;;;5.15;3.00;;;;;;;12.93;90.58;100331.38;10333310;28;20049;-72
2023/04/22 22:53:50;;;;;;;4.80;3.20;;;;;;;13.02;90.26;100340.09;10331132;28;20449;-72
2023/04/22 22:58:51;;;;;;;6.95;3.92;;;;;;;12.76;90.86;100309.38;10331774;28;20042;-72
2023/04/22 23:03:52;;;;;;;7.57;5.22;;;;;;;13.04;91.93;100351.41;10331825;28;20046;-73
2023/04/22 23:08:52;;;;;;;5.78;3.33;;;;;;;12.92;92.21;100342.19;10314749;28;20045;-73
2023/04/22 23:13:53;;;;;;;8.48;5.00;;;;;;;12.55;92.42;100294.09;10331615;28;20046;-73
2023/04/22 23:18:55;;;;;;;9.38;5.78;;;;;;;12.93;93.02;100355.38;10331943;28;20129;-73